This is the latest recevied weather packets stored in our database for station/object VU25RK-13. If no packets are shown the sender has not sent any weather packets the latest 10 day(s).
| Time | Temp. | Humidity | Pressure | Rain* | Wind** | Luminosity | Snow |
|---|---|---|---|---|---|---|---|
| 1788112378 | 71° F | 81% | 760.1 mmHg | - | - | - | - |
| 1788111478 | 71° F | 81% | 760.1 mmHg | - | - | - | - |
| 1788110580 | 71° F | 81% | 760.1 mmHg | - | - | - | - |
| 1788097216 | 74° F | 77% | 759.3 mmHg | - | - | - | - |
| 1788085812 | 83° F | 49% | 758.1 mmHg | - | - | - | - |
| 1788084912 | 83° F | 49% | 758.1 mmHg | - | - | - | - |
| 1788084011 | 83° F | 52% | 758.4 mmHg | - | - | - | - |
| 1788083111 | 83° F | 52% | 758.4 mmHg | - | - | - | - |
| 1788082210 | 83° F | 52% | 758.4 mmHg | - | - | - | - |
| 1788025019 | 70° F | 86% | 760 mmHg | - | - | - | - |
| 1788024119 | 71° F | 86% | 760 mmHg | - | - | - | - |
| 1788010781 | 74° F | 75% | 759.2 mmHg | - | - | - | - |
| 1787999840 | 82° F | 60% | 758.1 mmHg | - | - | - | - |
| 1787998939 | 83° F | 60% | 758.1 mmHg | - | - | - | - |
| 1787998040 | 84° F | 53% | 758.2 mmHg | - | - | - | - |
| 1787997135 | 84° F | 53% | 758.2 mmHg | - | - | - | - |
| 1787943983 | 69° F | 91% | 759.8 mmHg | - | - | - | - |
| 1787943081 | 69° F | 90% | 759.8 mmHg | - | - | - | - |
| 1787942180 | 69° F | 91% | 759.7 mmHg | - | - | - | - |
| 1787941280 | 70° F | 91% | 759.7 mmHg | - | - | - | - |
| 1787940378 | 70° F | 88% | 760.3 mmHg | - | - | - | - |
| 1787939482 | 70° F | 88% | 760.3 mmHg | - | - | - | - |
| 1787937235 | 71° F | 84% | 760.6 mmHg | - | - | - | - |
| 1787926207 | 80° F | 62% | 682.3 mmHg | - | - | - | - |
| 1787925906 | 79° F | 62% | 682.3 mmHg | - | - | - | - |
* Rain since midnight (hover to see other rain measurements)
** Current wind speed in m/s (hover to see current wind gust speed)